sensor_id;sensor_type;location;lat;lon;timestamp;P1;durP1;ratioP1;P2;durP2;ratioP2
7471;SDS011;3777;48.722;8.110;2022-08-19T00:00:49;23.37;;;21.07;;
7471;SDS011;3777;48.722;8.110;2022-08-19T00:03:16;23.50;;;21.10;;
7471;SDS011;3777;48.722;8.110;2022-08-19T00:05:45;21.40;;;19.40;;
7471;SDS011;3777;48.722;8.110;2022-08-19T00:08:12;22.77;;;20.70;;
7471;SDS011;3777;48.722;8.110;2022-08-19T00:10:39;22.97;;;20.83;;
7471;SDS011;3777;48.722;8.110;2022-08-19T00:13:06;20.80;;;18.90;;
7471;SDS011;3777;48.722;8.110;2022-08-19T00:15:33;22.47;;;20.33;;
7471;SDS011;3777;48.722;8.110;2022-08-19T00:18:00;23.00;;;20.73;;
7471;SDS011;3777;48.722;8.110;2022-08-19T00:20:27;20.90;;;18.90;;
7471;SDS011;3777;48.722;8.110;2022-08-19T00:22:55;22.93;;;20.77;;
7471;SDS011;3777;48.722;8.110;2022-08-19T00:25:22;21.23;;;19.37;;
7471;SDS011;3777;48.722;8.110;2022-08-19T00:27:49;22.27;;;20.23;;
7471;SDS011;3777;48.722;8.110;2022-08-19T00:30:16;21.70;;;19.63;;
7471;SDS011;3777;48.722;8.110;2022-08-19T00:32:44;22.40;;;20.30;;
7471;SDS011;3777;48.722;8.110;2022-08-19T00:35:11;21.40;;;19.40;;
7471;SDS011;3777;48.722;8.110;2022-08-19T00:37:38;21.57;;;19.67;;
7471;SDS011;3777;48.722;8.110;2022-08-19T00:40:11;20.07;;;18.27;;
7471;SDS011;3777;48.722;8.110;2022-08-19T00:42:38;23.38;;;21.15;;
7471;SDS011;3777;48.722;8.110;2022-08-19T00:45:08;22.58;;;20.48;;
7471;SDS011;3777;48.722;8.110;2022-08-19T00:47:38;22.87;;;20.77;;
7471;SDS011;3777;48.722;8.110;2022-08-19T00:50:06;21.38;;;19.38;;
7471;SDS011;3777;48.722;8.110;2022-08-19T00:52:37;22.53;;;20.40;;
7471;SDS011;3777;48.722;8.110;2022-08-19T00:55:12;23.27;;;21.07;;
7471;SDS011;3777;48.722;8.110;2022-08-19T00:57:44;23.97;;;21.57;;
7471;SDS011;3777;48.722;8.110;2022-08-19T01:00:17;24.73;;;22.40;;
7471;SDS011;3777;48.722;8.110;2022-08-19T01:02:45;24.17;;;21.87;;
7471;SDS011;3777;48.722;8.110;2022-08-19T01:05:14;24.43;;;22.23;;
7471;SDS011;3777;48.722;8.110;2022-08-19T01:07:46;24.20;;;21.90;;
7471;SDS011;3777;48.722;8.110;2022-08-19T01:10:16;23.73;;;21.27;;
7471;SDS011;3777;48.722;8.110;2022-08-19T01:12:46;23.80;;;21.27;;
7471;SDS011;3777;48.722;8.110;2022-08-19T01:15:15;21.53;;;19.53;;
7471;SDS011;3777;48.722;8.110;2022-08-19T01:17:44;20.57;;;18.73;;
7471;SDS011;3777;48.722;8.110;2022-08-19T01:20:13;22.23;;;20.03;;
7471;SDS011;3777;48.722;8.110;2022-08-19T01:22:46;21.43;;;19.53;;
7471;SDS011;3777;48.722;8.110;2022-08-19T01:25:15;20.73;;;18.93;;
7471;SDS011;3777;48.722;8.110;2022-08-19T01:27:46;19.87;;;18.07;;
7471;SDS011;3777;48.722;8.110;2022-08-19T01:30:15;18.83;;;17.13;;
7471;SDS011;3777;48.722;8.110;2022-08-19T01:32:45;19.70;;;17.80;;
7471;SDS011;3777;48.722;8.110;2022-08-19T01:35:13;21.37;;;19.37;;
7471;SDS011;3777;48.722;8.110;2022-08-19T01:37:49;19.60;;;17.73;;
7471;SDS011;3777;48.722;8.110;2022-08-19T01:40:18;22.37;;;20.17;;
7471;SDS011;3777;48.722;8.110;2022-08-19T01:42:47;22.77;;;20.57;;
7471;SDS011;3777;48.722;8.110;2022-08-19T01:45:14;23.30;;;21.30;;
7471;SDS011;3777;48.722;8.110;2022-08-19T01:47:41;22.43;;;20.13;;
7471;SDS011;3777;48.722;8.110;2022-08-19T01:50:09;20.43;;;18.53;;
7471;SDS011;3777;48.722;8.110;2022-08-19T01:52:38;21.33;;;19.27;;
7471;SDS011;3777;48.722;8.110;2022-08-19T01:55:09;24.13;;;21.60;;
7471;SDS011;3777;48.722;8.110;2022-08-19T01:57:39;22.13;;;19.90;;
7471;SDS011;3777;48.722;8.110;2022-08-19T02:00:10;24.50;;;22.05;;
7471;SDS011;3777;48.722;8.110;2022-08-19T02:02:39;26.50;;;23.87;;
7471;SDS011;3777;48.722;8.110;2022-08-19T02:05:06;28.20;;;25.60;;
7471;SDS011;3777;48.722;8.110;2022-08-19T02:07:33;24.60;;;22.20;;
7471;SDS011;3777;48.722;8.110;2022-08-19T02:10:02;29.10;;;26.20;;
7471;SDS011;3777;48.722;8.110;2022-08-19T02:12:30;27.83;;;25.17;;
7471;SDS011;3777;48.722;8.110;2022-08-19T02:14:58;29.33;;;26.40;;
7471;SDS011;3777;48.722;8.110;2022-08-19T02:17:26;27.47;;;24.80;;
7471;SDS011;3777;48.722;8.110;2022-08-19T02:19:53;28.97;;;25.97;;
7471;SDS011;3777;48.722;8.110;2022-08-19T02:22:21;28.03;;;25.43;;
7471;SDS011;3777;48.722;8.110;2022-08-19T02:24:50;22.57;;;20.43;;
7471;SDS011;3777;48.722;8.110;2022-08-19T02:27:17;25.53;;;23.10;;
7471;SDS011;3777;48.722;8.110;2022-08-19T02:29:46;26.33;;;23.83;;
7471;SDS011;3777;48.722;8.110;2022-08-19T02:32:14;26.10;;;23.67;;
7471;SDS011;3777;48.722;8.110;2022-08-19T02:34:41;26.90;;;24.30;;
7471;SDS011;3777;48.722;8.110;2022-08-19T02:37:08;29.03;;;26.10;;
7471;SDS011;3777;48.722;8.110;2022-08-19T02:39:55;28.60;;;25.77;;
7471;SDS011;3777;48.722;8.110;2022-08-19T02:42:22;30.97;;;27.87;;
7471;SDS011;3777;48.722;8.110;2022-08-19T02:44:50;30.17;;;27.33;;
7471;SDS011;3777;48.722;8.110;2022-08-19T02:47:18;25.47;;;23.07;;
7471;SDS011;3777;48.722;8.110;2022-08-19T02:49:45;29.27;;;26.40;;
7471;SDS011;3777;48.722;8.110;2022-08-19T02:52:14;30.60;;;27.23;;
7471;SDS011;3777;48.722;8.110;2022-08-19T02:54:42;30.20;;;27.20;;
7471;SDS011;3777;48.722;8.110;2022-08-19T02:57:09;31.23;;;28.03;;
7471;SDS011;3777;48.722;8.110;2022-08-19T02:59:36;32.13;;;28.97;;
7471;SDS011;3777;48.722;8.110;2022-08-19T03:02:06;29.83;;;26.83;;
7471;SDS011;3777;48.722;8.110;2022-08-19T03:04:33;26.27;;;23.67;;
7471;SDS011;3777;48.722;8.110;2022-08-19T03:07:00;23.43;;;21.20;;
7471;SDS011;3777;48.722;8.110;2022-08-19T03:09:27;26.37;;;23.87;;
7471;SDS011;3777;48.722;8.110;2022-08-19T03:11:55;26.08;;;23.58;;
7471;SDS011;3777;48.722;8.110;2022-08-19T03:14:22;27.23;;;24.55;;
7471;SDS011;3777;48.722;8.110;2022-08-19T03:16:50;27.65;;;25.05;;
7471;SDS011;3777;48.722;8.110;2022-08-19T03:19:19;28.05;;;25.45;;
7471;SDS011;3777;48.722;8.110;2022-08-19T03:21:47;26.55;;;24.02;;
7471;SDS011;3777;48.722;8.110;2022-08-19T03:24:14;26.95;;;24.38;;
7471;SDS011;3777;48.722;8.110;2022-08-19T03:26:43;24.20;;;21.98;;
7471;SDS011;3777;48.722;8.110;2022-08-19T03:29:20;25.17;;;22.73;;
7471;SDS011;3777;48.722;8.110;2022-08-19T03:31:47;25.08;;;22.58;;
7471;SDS011;3777;48.722;8.110;2022-08-19T03:34:16;27.05;;;24.45;;
7471;SDS011;3777;48.722;8.110;2022-08-19T03:36:45;27.27;;;24.60;;
7471;SDS011;3777;48.722;8.110;2022-08-19T03:39:14;26.60;;;23.98;;
7471;SDS011;3777;48.722;8.110;2022-08-19T03:41:41;27.67;;;24.98;;
7471;SDS011;3777;48.722;8.110;2022-08-19T03:44:09;29.65;;;26.75;;
7471;SDS011;3777;48.722;8.110;2022-08-19T03:46:36;28.30;;;25.35;;
7471;SDS011;3777;48.722;8.110;2022-08-19T03:49:04;29.17;;;26.08;;
7471;SDS011;3777;48.722;8.110;2022-08-19T03:51:34;29.23;;;26.30;;
7471;SDS011;3777;48.722;8.110;2022-08-19T03:54:05;29.15;;;26.35;;
7471;SDS011;3777;48.722;8.110;2022-08-19T03:56:33;29.63;;;26.60;;
7471;SDS011;3777;48.722;8.110;2022-08-19T03:59:02;29.80;;;26.70;;
7471;SDS011;3777;48.722;8.110;2022-08-19T04:01:30;30.70;;;27.50;;
7471;SDS011;3777;48.722;8.110;2022-08-19T04:03:58;30.53;;;27.43;;
7471;SDS011;3777;48.722;8.110;2022-08-19T04:06:27;30.60;;;27.40;;
7471;SDS011;3777;48.722;8.110;2022-08-19T04:08:56;27.83;;;25.13;;
7471;SDS011;3777;48.722;8.110;2022-08-19T04:11:26;30.03;;;26.87;;
7471;SDS011;3777;48.722;8.110;2022-08-19T04:13:55;29.77;;;26.75;;
7471;SDS011;3777;48.722;8.110;2022-08-19T04:16:23;29.00;;;26.00;;
7471;SDS011;3777;48.722;8.110;2022-08-19T04:18:53;28.37;;;25.47;;
7471;SDS011;3777;48.722;8.110;2022-08-19T04:21:22;25.67;;;23.23;;
7471;SDS011;3777;48.722;8.110;2022-08-19T04:23:51;29.10;;;26.13;;
7471;SDS011;3777;48.722;8.110;2022-08-19T04:26:21;27.13;;;24.52;;
7471;SDS011;3777;48.722;8.110;2022-08-19T04:28:49;28.38;;;25.60;;
7471;SDS011;3777;48.722;8.110;2022-08-19T04:31:17;27.57;;;24.57;;
7471;SDS011;3777;48.722;8.110;2022-08-19T04:33:45;28.45;;;25.63;;
7471;SDS011;3777;48.722;8.110;2022-08-19T04:36:16;29.15;;;26.15;;
7471;SDS011;3777;48.722;8.110;2022-08-19T04:38:45;29.37;;;26.17;;
7471;SDS011;3777;48.722;8.110;2022-08-19T04:41:12;28.27;;;25.47;;
7471;SDS011;3777;48.722;8.110;2022-08-19T04:43:58;29.38;;;26.52;;
7471;SDS011;3777;48.722;8.110;2022-08-19T04:46:25;30.33;;;27.13;;
7471;SDS011;3777;48.722;8.110;2022-08-19T04:48:54;29.52;;;26.58;;
7471;SDS011;3777;48.722;8.110;2022-08-19T04:51:22;28.83;;;25.73;;
7471;SDS011;3777;48.722;8.110;2022-08-19T04:53:49;29.33;;;26.27;;
7471;SDS011;3777;48.722;8.110;2022-08-19T04:56:17;27.97;;;25.17;;
7471;SDS011;3777;48.722;8.110;2022-08-19T04:58:45;27.70;;;24.80;;
7471;SDS011;3777;48.722;8.110;2022-08-19T05:01:17;26.25;;;23.55;;
7471;SDS011;3777;48.722;8.110;2022-08-19T05:03:45;26.73;;;24.05;;
7471;SDS011;3777;48.722;8.110;2022-08-19T05:06:13;24.27;;;21.85;;
7471;SDS011;3777;48.722;8.110;2022-08-19T05:08:41;28.00;;;24.65;;
7471;SDS011;3777;48.722;8.110;2022-08-19T05:11:12;26.98;;;24.38;;
7471;SDS011;3777;48.722;8.110;2022-08-19T05:13:40;27.00;;;24.23;;
7471;SDS011;3777;48.722;8.110;2022-08-19T05:16:08;29.00;;;25.95;;
7471;SDS011;3777;48.722;8.110;2022-08-19T05:18:38;27.20;;;24.58;;
7471;SDS011;3777;48.722;8.110;2022-08-19T05:21:23;23.83;;;21.33;;
7471;SDS011;3777;48.722;8.110;2022-08-19T05:24:09;23.88;;;21.52;;
7471;SDS011;3777;48.722;8.110;2022-08-19T05:26:36;22.85;;;20.65;;
7471;SDS011;3777;48.722;8.110;2022-08-19T05:29:04;20.92;;;18.75;;
7471;SDS011;3777;48.722;8.110;2022-08-19T05:31:32;24.02;;;21.67;;
7471;SDS011;3777;48.722;8.110;2022-08-19T05:34:02;23.58;;;21.33;;
7471;SDS011;3777;48.722;8.110;2022-08-19T05:36:32;26.08;;;23.33;;
7471;SDS011;3777;48.722;8.110;2022-08-19T05:39:01;24.05;;;21.55;;
7471;SDS011;3777;48.722;8.110;2022-08-19T05:41:28;23.67;;;21.17;;
7471;SDS011;3777;48.722;8.110;2022-08-19T05:43:56;28.27;;;25.38;;
7471;SDS011;3777;48.722;8.110;2022-08-19T05:46:23;26.02;;;23.42;;
7471;SDS011;3777;48.722;8.110;2022-08-19T05:48:51;27.38;;;24.63;;
7471;SDS011;3777;48.722;8.110;2022-08-19T05:51:20;27.48;;;24.55;;
7471;SDS011;3777;48.722;8.110;2022-08-19T05:53:47;27.35;;;24.63;;
7471;SDS011;3777;48.722;8.110;2022-08-19T05:56:15;25.45;;;22.95;;
7471;SDS011;3777;48.722;8.110;2022-08-19T05:58:43;25.88;;;23.15;;
7471;SDS011;3777;48.722;8.110;2022-08-19T06:01:12;26.35;;;23.65;;
7471;SDS011;3777;48.722;8.110;2022-08-19T06:03:40;25.42;;;22.67;;
7471;SDS011;3777;48.722;8.110;2022-08-19T06:06:07;25.13;;;22.48;;
7471;SDS011;3777;48.722;8.110;2022-08-19T06:08:37;27.08;;;24.17;;
7471;SDS011;3777;48.722;8.110;2022-08-19T06:11:15;26.02;;;23.48;;
7471;SDS011;3777;48.722;8.110;2022-08-19T06:13:45;26.58;;;23.67;;
7471;SDS011;3777;48.722;8.110;2022-08-19T06:16:16;26.85;;;23.95;;
7471;SDS011;3777;48.722;8.110;2022-08-19T06:18:47;27.45;;;24.65;;
7471;SDS011;3777;48.722;8.110;2022-08-19T06:21:16;23.67;;;21.35;;
7471;SDS011;3777;48.722;8.110;2022-08-19T06:23:46;26.67;;;23.98;;
7471;SDS011;3777;48.722;8.110;2022-08-19T06:26:13;27.88;;;24.92;;
7471;SDS011;3777;48.722;8.110;2022-08-19T06:28:41;28.08;;;25.20;;
7471;SDS011;3777;48.722;8.110;2022-08-19T06:31:11;28.45;;;25.17;;
7471;SDS011;3777;48.722;8.110;2022-08-19T06:33:39;26.60;;;23.77;;
7471;SDS011;3777;48.722;8.110;2022-08-19T06:36:07;26.00;;;23.38;;
7471;SDS011;3777;48.722;8.110;2022-08-19T06:38:41;27.00;;;24.13;;
7471;SDS011;3777;48.722;8.110;2022-08-19T06:41:10;27.20;;;24.30;;
7471;SDS011;3777;48.722;8.110;2022-08-19T06:43:37;24.23;;;21.83;;
7471;SDS011;3777;48.722;8.110;2022-08-19T06:46:04;25.52;;;22.08;;
7471;SDS011;3777;48.722;8.110;2022-08-19T06:48:36;26.35;;;23.52;;
7471;SDS011;3777;48.722;8.110;2022-08-19T06:51:04;26.23;;;23.58;;
7471;SDS011;3777;48.722;8.110;2022-08-19T06:53:31;23.98;;;21.58;;
7471;SDS011;3777;48.722;8.110;2022-08-19T06:55:58;24.63;;;22.13;;
7471;SDS011;3777;48.722;8.110;2022-08-19T06:58:29;22.83;;;20.42;;
7471;SDS011;3777;48.722;8.110;2022-08-19T07:00:58;25.45;;;22.95;;
7471;SDS011;3777;48.722;8.110;2022-08-19T07:03:28;20.42;;;18.35;;
7471;SDS011;3777;48.722;8.110;2022-08-19T07:05:57;23.33;;;20.77;;
7471;SDS011;3777;48.722;8.110;2022-08-19T07:08:28;26.02;;;23.30;;
7471;SDS011;3777;48.722;8.110;2022-08-19T07:10:55;26.38;;;23.75;;
7471;SDS011;3777;48.722;8.110;2022-08-19T07:13:22;24.38;;;21.92;;
7471;SDS011;3777;48.722;8.110;2022-08-19T07:15:50;24.55;;;22.02;;
7471;SDS011;3777;48.722;8.110;2022-08-19T07:18:18;21.58;;;19.42;;
7471;SDS011;3777;48.722;8.110;2022-08-19T07:20:46;24.60;;;22.20;;
7471;SDS011;3777;48.722;8.110;2022-08-19T07:23:13;24.95;;;22.35;;
7471;SDS011;3777;48.722;8.110;2022-08-19T07:25:40;20.55;;;18.50;;
7471;SDS011;3777;48.722;8.110;2022-08-19T07:28:08;22.90;;;20.67;;
7471;SDS011;3777;48.722;8.110;2022-08-19T07:30:38;22.98;;;20.67;;
7471;SDS011;3777;48.722;8.110;2022-08-19T07:33:07;26.73;;;23.45;;
7471;SDS011;3777;48.722;8.110;2022-08-19T07:35:34;25.17;;;22.65;;
7471;SDS011;3777;48.722;8.110;2022-08-19T07:38:01;21.98;;;19.92;;
7471;SDS011;3777;48.722;8.110;2022-08-19T07:40:29;26.23;;;23.42;;
7471;SDS011;3777;48.722;8.110;2022-08-19T07:42:56;25.33;;;23.02;;
7471;SDS011;3777;48.722;8.110;2022-08-19T07:45:23;27.35;;;24.40;;
7471;SDS011;3777;48.722;8.110;2022-08-19T07:47:52;25.85;;;23.25;;
7471;SDS011;3777;48.722;8.110;2022-08-19T07:50:20;26.13;;;23.63;;
7471;SDS011;3777;48.722;8.110;2022-08-19T07:52:48;27.25;;;24.40;;
7471;SDS011;3777;48.722;8.110;2022-08-19T07:55:16;24.35;;;22.05;;
7471;SDS011;3777;48.722;8.110;2022-08-19T07:57:45;26.58;;;23.67;;
7471;SDS011;3777;48.722;8.110;2022-08-19T08:00:12;25.00;;;22.58;;
7471;SDS011;3777;48.722;8.110;2022-08-19T08:02:40;26.20;;;23.42;;
7471;SDS011;3777;48.722;8.110;2022-08-19T08:05:08;26.13;;;23.55;;
7471;SDS011;3777;48.722;8.110;2022-08-19T08:07:54;25.98;;;23.35;;
7471;SDS011;3777;48.722;8.110;2022-08-19T08:10:39;26.65;;;23.95;;
7471;SDS011;3777;48.722;8.110;2022-08-19T08:13:06;26.52;;;23.83;;
7471;SDS011;3777;48.722;8.110;2022-08-19T08:15:33;25.58;;;23.02;;
7471;SDS011;3777;48.722;8.110;2022-08-19T08:18:02;27.33;;;24.33;;
7471;SDS011;3777;48.722;8.110;2022-08-19T08:20:29;26.27;;;23.58;;
7471;SDS011;3777;48.722;8.110;2022-08-19T08:22:58;26.65;;;23.88;;
7471;SDS011;3777;48.722;8.110;2022-08-19T08:25:42;24.20;;;21.90;;
7471;SDS011;3777;48.722;8.110;2022-08-19T08:28:09;25.42;;;22.90;;
7471;SDS011;3777;48.722;8.110;2022-08-19T08:30:36;26.02;;;23.42;;
7471;SDS011;3777;48.722;8.110;2022-08-19T08:33:06;24.05;;;21.60;;
7471;SDS011;3777;48.722;8.110;2022-08-19T08:35:34;25.30;;;22.58;;
7471;SDS011;3777;48.722;8.110;2022-08-19T08:38:02;22.10;;;20.02;;
7471;SDS011;3777;48.722;8.110;2022-08-19T08:40:31;21.80;;;19.80;;
7471;SDS011;3777;48.722;8.110;2022-08-19T08:43:06;19.52;;;17.63;;
7471;SDS011;3777;48.722;8.110;2022-08-19T08:45:43;21.95;;;19.75;;
7471;SDS011;3777;48.722;8.110;2022-08-19T08:48:18;22.42;;;20.33;;
7471;SDS011;3777;48.722;8.110;2022-08-19T08:50:48;21.92;;;19.60;;
7471;SDS011;3777;48.722;8.110;2022-08-19T08:53:19;22.73;;;19.77;;
7471;SDS011;3777;48.722;8.110;2022-08-19T08:55:47;20.70;;;18.70;;
7471;SDS011;3777;48.722;8.110;2022-08-19T08:58:16;20.17;;;18.23;;
7471;SDS011;3777;48.722;8.110;2022-08-19T09:00:50;20.85;;;18.92;;
7471;SDS011;3777;48.722;8.110;2022-08-19T09:03:19;18.60;;;16.75;;
7471;SDS011;3777;48.722;8.110;2022-08-19T09:05:49;21.40;;;19.38;;
7471;SDS011;3777;48.722;8.110;2022-08-19T09:08:27;16.85;;;15.35;;
7471;SDS011;3777;48.722;8.110;2022-08-19T09:11:03;18.70;;;16.90;;
7471;SDS011;3777;48.722;8.110;2022-08-19T09:13:36;20.33;;;18.42;;
7471;SDS011;3777;48.722;8.110;2022-08-19T09:16:10;17.55;;;15.93;;
7471;SDS011;3777;48.722;8.110;2022-08-19T09:18:41;20.60;;;18.05;;
7471;SDS011;3777;48.722;8.110;2022-08-19T09:21:11;18.50;;;16.80;;
7471;SDS011;3777;48.722;8.110;2022-08-19T09:23:40;17.90;;;16.30;;
7471;SDS011;3777;48.722;8.110;2022-08-19T09:26:09;18.50;;;16.75;;
7471;SDS011;3777;48.722;8.110;2022-08-19T09:28:39;14.93;;;13.63;;
7471;SDS011;3777;48.722;8.110;2022-08-19T09:31:08;16.42;;;14.73;;
7471;SDS011;3777;48.722;8.110;2022-08-19T09:33:35;16.98;;;15.38;;
7471;SDS011;3777;48.722;8.110;2022-08-19T09:36:04;16.20;;;14.73;;
7471;SDS011;3777;48.722;8.110;2022-08-19T09:38:33;14.02;;;12.68;;
7471;SDS011;3777;48.722;8.110;2022-08-19T09:41:05;15.73;;;14.23;;
7471;SDS011;3777;48.722;8.110;2022-08-19T09:43:35;13.40;;;12.20;;
7471;SDS011;3777;48.722;8.110;2022-08-19T09:46:03;14.13;;;12.73;;
7471;SDS011;3777;48.722;8.110;2022-08-19T09:48:31;14.10;;;12.75;;
7471;SDS011;3777;48.722;8.110;2022-08-19T09:51:02;13.45;;;12.27;;
7471;SDS011;3777;48.722;8.110;2022-08-19T09:53:32;15.70;;;14.10;;
7471;SDS011;3777;48.722;8.110;2022-08-19T09:55:59;14.30;;;13.00;;
7471;SDS011;3777;48.722;8.110;2022-08-19T09:58:28;13.48;;;12.20;;
7471;SDS011;3777;48.722;8.110;2022-08-19T10:00:55;12.40;;;11.30;;
7471;SDS011;3777;48.722;8.110;2022-08-19T10:03:24;12.02;;;10.93;;
7471;SDS011;3777;48.722;8.110;2022-08-19T10:05:52;12.60;;;11.50;;
7471;SDS011;3777;48.722;8.110;2022-08-19T10:08:21;11.93;;;10.82;;
7471;SDS011;3777;48.722;8.110;2022-08-19T10:10:49;12.10;;;10.75;;
7471;SDS011;3777;48.722;8.110;2022-08-19T10:13:17;10.45;;;9.55;;
7471;SDS011;3777;48.722;8.110;2022-08-19T10:15:48;9.48;;;8.68;;
7471;SDS011;3777;48.722;8.110;2022-08-19T10:18:16;9.65;;;8.80;;
7471;SDS011;3777;48.722;8.110;2022-08-19T10:20:44;10.02;;;9.20;;
7471;SDS011;3777;48.722;8.110;2022-08-19T10:23:12;11.55;;;10.50;;
7471;SDS011;3777;48.722;8.110;2022-08-19T10:25:40;11.13;;;10.15;;
7471;SDS011;3777;48.722;8.110;2022-08-19T10:28:08;8.70;;;7.90;;
7471;SDS011;3777;48.722;8.110;2022-08-19T10:30:37;7.60;;;6.80;;
7471;SDS011;3777;48.722;8.110;2022-08-19T10:33:05;7.20;;;6.60;;
7471;SDS011;3777;48.722;8.110;2022-08-19T10:35:33;8.57;;;7.72;;
7471;SDS011;3777;48.722;8.110;2022-08-19T10:38:01;8.75;;;7.97;;
7471;SDS011;3777;48.722;8.110;2022-08-19T10:40:28;8.18;;;7.40;;
7471;SDS011;3777;48.722;8.110;2022-08-19T10:42:55;8.35;;;7.55;;
7471;SDS011;3777;48.722;8.110;2022-08-19T10:45:22;8.65;;;7.38;;
7471;SDS011;3777;48.722;8.110;2022-08-19T10:47:51;7.05;;;6.43;;
7471;SDS011;3777;48.722;8.110;2022-08-19T10:50:20;8.13;;;7.38;;
7471;SDS011;3777;48.722;8.110;2022-08-19T10:53:05;8.57;;;7.75;;
7471;SDS011;3777;48.722;8.110;2022-08-19T10:55:34;8.10;;;7.40;;
7471;SDS011;3777;48.722;8.110;2022-08-19T10:58:19;9.00;;;8.13;;
7471;SDS011;3777;48.722;8.110;2022-08-19T11:00:51;8.75;;;7.85;;
7471;SDS011;3777;48.722;8.110;2022-08-19T11:03:19;7.97;;;7.25;;
7471;SDS011;3777;48.722;8.110;2022-08-19T11:05:51;10.07;;;7.97;;
7471;SDS011;3777;48.722;8.110;2022-08-19T11:08:23;8.63;;;7.90;;
7471;SDS011;3777;48.722;8.110;2022-08-19T11:10:52;7.25;;;6.55;;
7471;SDS011;3777;48.722;8.110;2022-08-19T11:13:21;7.65;;;6.88;;
7471;SDS011;3777;48.722;8.110;2022-08-19T11:15:55;7.40;;;6.78;;
7471;SDS011;3777;48.722;8.110;2022-08-19T11:18:23;9.00;;;7.43;;
7471;SDS011;3777;48.722;8.110;2022-08-19T11:20:52;8.95;;;8.05;;
7471;SDS011;3777;48.722;8.110;2022-08-19T11:23:19;7.90;;;7.10;;
7471;SDS011;3777;48.722;8.110;2022-08-19T11:25:46;7.50;;;6.80;;
7471;SDS011;3777;48.722;8.110;2022-08-19T11:28:13;9.02;;;8.13;;
7471;SDS011;3777;48.722;8.110;2022-08-19T11:30:41;8.10;;;7.50;;
7471;SDS011;3777;48.722;8.110;2022-08-19T11:33:07;9.05;;;8.25;;
7471;SDS011;3777;48.722;8.110;2022-08-19T11:35:38;9.38;;;8.32;;
7471;SDS011;3777;48.722;8.110;2022-08-19T11:38:07;9.38;;;8.60;;
7471;SDS011;3777;48.722;8.110;2022-08-19T11:40:34;8.65;;;7.75;;
7471;SDS011;3777;48.722;8.110;2022-08-19T11:43:01;8.98;;;8.23;;
7471;SDS011;3777;48.722;8.110;2022-08-19T11:45:29;9.30;;;8.50;;
7471;SDS011;3777;48.722;8.110;2022-08-19T11:47:57;9.50;;;8.48;;
7471;SDS011;3777;48.722;8.110;2022-08-19T11:50:23;9.05;;;8.35;;
7471;SDS011;3777;48.722;8.110;2022-08-19T11:52:53;9.68;;;8.85;;
7471;SDS011;3777;48.722;8.110;2022-08-19T11:55:22;10.40;;;9.30;;
7471;SDS011;3777;48.722;8.110;2022-08-19T11:57:49;10.15;;;9.13;;
7471;SDS011;3777;48.722;8.110;2022-08-19T12:00:16;9.55;;;8.65;;
7471;SDS011;3777;48.722;8.110;2022-08-19T12:02:44;10.07;;;9.07;;
7471;SDS011;3777;48.722;8.110;2022-08-19T12:05:12;10.63;;;9.50;;
7471;SDS011;3777;48.722;8.110;2022-08-19T12:07:39;10.68;;;9.68;;
7471;SDS011;3777;48.722;8.110;2022-08-19T12:10:07;13.88;;;10.00;;
7471;SDS011;3777;48.722;8.110;2022-08-19T12:12:37;9.77;;;8.98;;
7471;SDS011;3777;48.722;8.110;2022-08-19T12:15:07;10.50;;;8.50;;
7471;SDS011;3777;48.722;8.110;2022-08-19T12:17:35;9.00;;;8.10;;
7471;SDS011;3777;48.722;8.110;2022-08-19T12:20:03;8.18;;;7.57;;
7471;SDS011;3777;48.722;8.110;2022-08-19T12:22:31;9.60;;;8.18;;
7471;SDS011;3777;48.722;8.110;2022-08-19T12:25:00;9.00;;;8.10;;
7471;SDS011;3777;48.722;8.110;2022-08-19T12:27:27;9.77;;;8.77;;
7471;SDS011;3777;48.722;8.110;2022-08-19T12:29:55;9.05;;;8.23;;
7471;SDS011;3777;48.722;8.110;2022-08-19T12:32:23;8.95;;;7.90;;
7471;SDS011;3777;48.722;8.110;2022-08-19T12:34:51;8.20;;;7.50;;
7471;SDS011;3777;48.722;8.110;2022-08-19T12:37:19;8.60;;;7.50;;
7471;SDS011;3777;48.722;8.110;2022-08-19T12:39:46;7.80;;;7.10;;
7471;SDS011;3777;48.722;8.110;2022-08-19T12:42:14;7.97;;;7.28;;
7471;SDS011;3777;48.722;8.110;2022-08-19T12:44:43;9.00;;;7.68;;
7471;SDS011;3777;48.722;8.110;2022-08-19T12:47:12;8.55;;;6.80;;
7471;SDS011;3777;48.722;8.110;2022-08-19T12:49:39;8.45;;;6.68;;
7471;SDS011;3777;48.722;8.110;2022-08-19T12:52:07;7.93;;;6.97;;
7471;SDS011;3777;48.722;8.110;2022-08-19T12:54:35;8.30;;;7.50;;
7471;SDS011;3777;48.722;8.110;2022-08-19T12:57:04;9.25;;;8.45;;
7471;SDS011;3777;48.722;8.110;2022-08-19T12:59:32;8.43;;;7.63;;
7471;SDS011;3777;48.722;8.110;2022-08-19T13:02:01;8.05;;;7.32;;
7471;SDS011;3777;48.722;8.110;2022-08-19T13:04:31;9.25;;;8.35;;
7471;SDS011;3777;48.722;8.110;2022-08-19T13:07:00;7.20;;;6.60;;
7471;SDS011;3777;48.722;8.110;2022-08-19T13:09:27;7.80;;;6.43;;
7471;SDS011;3777;48.722;8.110;2022-08-19T13:11:54;6.75;;;6.07;;
7471;SDS011;3777;48.722;8.110;2022-08-19T13:14:21;6.53;;;5.60;;
7471;SDS011;3777;48.722;8.110;2022-08-19T13:16:48;5.88;;;5.30;;
7471;SDS011;3777;48.722;8.110;2022-08-19T13:19:15;6.22;;;5.63;;
7471;SDS011;3777;48.722;8.110;2022-08-19T13:21:48;6.40;;;5.38;;
7471;SDS011;3777;48.722;8.110;2022-08-19T13:24:16;5.68;;;5.10;;
7471;SDS011;3777;48.722;8.110;2022-08-19T13:26:43;7.10;;;5.38;;
7471;SDS011;3777;48.722;8.110;2022-08-19T13:29:10;5.85;;;5.35;;
7471;SDS011;3777;48.722;8.110;2022-08-19T13:31:54;5.78;;;5.25;;
7471;SDS011;3777;48.722;8.110;2022-08-19T13:34:39;5.25;;;4.85;;
7471;SDS011;3777;48.722;8.110;2022-08-19T13:37:07;5.75;;;5.25;;
7471;SDS011;3777;48.722;8.110;2022-08-19T13:39:34;5.90;;;5.40;;
7471;SDS011;3777;48.722;8.110;2022-08-19T13:42:02;4.93;;;4.53;;
7471;SDS011;3777;48.722;8.110;2022-08-19T13:44:29;6.07;;;5.30;;
7471;SDS011;3777;48.722;8.110;2022-08-19T13:46:59;5.40;;;5.00;;
7471;SDS011;3777;48.722;8.110;2022-08-19T13:49:30;5.63;;;5.15;;
7471;SDS011;3777;48.722;8.110;2022-08-19T13:51:57;5.47;;;4.97;;
7471;SDS011;3777;48.722;8.110;2022-08-19T13:54:26;5.22;;;4.53;;
7471;SDS011;3777;48.722;8.110;2022-08-19T13:56:53;5.22;;;4.72;;
7471;SDS011;3777;48.722;8.110;2022-08-19T13:59:20;5.40;;;4.90;;
7471;SDS011;3777;48.722;8.110;2022-08-19T14:01:47;5.88;;;5.38;;
7471;SDS011;3777;48.722;8.110;2022-08-19T14:04:15;5.38;;;4.93;;
7471;SDS011;3777;48.722;8.110;2022-08-19T14:06:41;4.97;;;4.57;;
7471;SDS011;3777;48.722;8.110;2022-08-19T14:09:08;5.20;;;4.80;;
7471;SDS011;3777;48.722;8.110;2022-08-19T14:11:37;5.13;;;4.70;;
7471;SDS011;3777;48.722;8.110;2022-08-19T14:14:04;4.97;;;4.57;;
7471;SDS011;3777;48.722;8.110;2022-08-19T14:16:31;6.07;;;4.82;;
7471;SDS011;3777;48.722;8.110;2022-08-19T14:18:58;5.35;;;4.95;;
7471;SDS011;3777;48.722;8.110;2022-08-19T14:21:25;5.53;;;5.13;;
7471;SDS011;3777;48.722;8.110;2022-08-19T14:23:52;4.90;;;4.55;;
7471;SDS011;3777;48.722;8.110;2022-08-19T14:26:20;5.38;;;4.78;;
7471;SDS011;3777;48.722;8.110;2022-08-19T14:28:50;5.18;;;4.78;;
7471;SDS011;3777;48.722;8.110;2022-08-19T14:31:17;4.93;;;4.53;;
7471;SDS011;3777;48.722;8.110;2022-08-19T14:33:46;5.93;;;5.28;;
7471;SDS011;3777;48.722;8.110;2022-08-19T14:36:15;5.18;;;4.78;;
7471;SDS011;3777;48.722;8.110;2022-08-19T14:38:42;5.53;;;4.72;;
7471;SDS011;3777;48.722;8.110;2022-08-19T14:41:11;5.10;;;4.70;;
7471;SDS011;3777;48.722;8.110;2022-08-19T14:43:41;5.05;;;4.60;;
7471;SDS011;3777;48.722;8.110;2022-08-19T14:46:12;5.28;;;4.85;;
7471;SDS011;3777;48.722;8.110;2022-08-19T14:48:40;5.30;;;4.90;;
7471;SDS011;3777;48.722;8.110;2022-08-19T14:51:07;5.78;;;5.03;;
7471;SDS011;3777;48.722;8.110;2022-08-19T14:53:35;5.90;;;4.70;;
7471;SDS011;3777;48.722;8.110;2022-08-19T14:56:06;4.95;;;4.55;;
7471;SDS011;3777;48.722;8.110;2022-08-19T14:58:35;5.22;;;4.57;;
7471;SDS011;3777;48.722;8.110;2022-08-19T15:01:02;5.82;;;4.60;;
7471;SDS011;3777;48.722;8.110;2022-08-19T15:03:31;4.78;;;4.35;;
7471;SDS011;3777;48.722;8.110;2022-08-19T15:05:58;4.63;;;4.22;;